createdAt,value
2022-11-30T00:00:39.798Z,7.85
2022-11-30T00:03:15.118Z,7.32
2022-11-30T00:05:41.953Z,8.98
2022-11-30T00:08:15.071Z,8.75
2022-11-30T00:10:42.567Z,7.07
2022-11-30T00:13:17.060Z,7.90
2022-11-30T00:15:50.036Z,7.18
2022-11-30T00:18:17.922Z,7.57
2022-11-30T00:20:52.075Z,7.07
2022-11-30T00:23:25.017Z,5.65
2022-11-30T00:25:58.029Z,7.25
2022-11-30T00:28:31.142Z,5.70
2022-11-30T00:31:06.145Z,6.13
2022-11-30T00:33:34.285Z,6.88
2022-11-30T00:36:14.051Z,7.82
2022-11-30T00:38:48.042Z,7.15
2022-11-30T00:41:15.619Z,6.95
2022-11-30T00:43:49.064Z,7.22
2022-11-30T00:46:16.108Z,7.35
2022-11-30T00:48:49.144Z,6.93
2022-11-30T00:51:23.142Z,7.03
2022-11-30T00:53:50.104Z,7.03
2022-11-30T00:56:24.829Z,6.95
2022-11-30T00:58:58.109Z,6.35
2022-11-30T01:01:25.002Z,6.97
2022-11-30T01:03:59.099Z,7.80
2022-11-30T01:06:32.188Z,6.97
2022-11-30T01:08:59.913Z,6.97
2022-11-30T01:11:35.143Z,7.13
2022-11-30T01:14:09.155Z,10.82
2022-11-30T01:16:42.162Z,9.65
2022-11-30T01:19:15.136Z,10.80
2022-11-30T01:21:41.930Z,10.88
2022-11-30T01:24:17.163Z,10.05
2022-11-30T01:26:43.920Z,11.88
2022-11-30T01:29:17.160Z,11.45
2022-11-30T01:31:50.128Z,10.20
2022-11-30T01:34:16.867Z,9.60
2022-11-30T01:36:50.227Z,8.38
2022-11-30T01:39:23.165Z,9.18
2022-11-30T01:41:56.167Z,7.43
2022-11-30T01:44:26.699Z,7.90
2022-11-30T01:47:05.153Z,7.55
2022-11-30T01:49:42.198Z,7.38
2022-11-30T01:52:32.182Z,7.32
2022-11-30T01:55:33.239Z,7.43
2022-11-30T01:58:14.258Z,6.88
2022-11-30T02:00:53.226Z,8.30
2022-11-30T02:03:32.483Z,8.52
2022-11-30T02:06:07.175Z,7.50
2022-11-30T02:08:43.384Z,8.13
2022-11-30T02:11:20.238Z,8.15
2022-11-30T02:13:50.068Z,8.25
2022-11-30T02:16:45.211Z,6.10
2022-11-30T02:19:12.193Z,6.22
2022-11-30T02:21:56.225Z,6.30
2022-11-30T02:24:37.060Z,7.95
2022-11-30T02:27:42.229Z,7.93
2022-11-30T02:30:13.636Z,5.82
2022-11-30T02:32:54.412Z,6.87
2022-11-30T02:35:33.228Z,8.27
2022-11-30T02:38:02.359Z,7.40
2022-11-30T02:40:36.266Z,8.10
2022-11-30T02:43:11.260Z,7.53
2022-11-30T02:45:47.180Z,8.52
2022-11-30T02:48:24.294Z,9.23
2022-11-30T02:50:54.464Z,8.63
2022-11-30T02:53:28.301Z,8.07
2022-11-30T02:55:55.298Z,6.97
2022-11-30T02:58:29.309Z,7.60
2022-11-30T03:00:56.659Z,7.40
2022-11-30T03:03:30.269Z,8.38
2022-11-30T03:05:57.580Z,9.50
2022-11-30T03:08:35.282Z,8.45
2022-11-30T03:11:10.274Z,8.00
2022-11-30T03:13:43.309Z,8.63
2022-11-30T03:16:13.631Z,7.20
2022-11-30T03:18:47.300Z,6.38
2022-11-30T03:21:20.332Z,6.90
2022-11-30T03:23:55.363Z,6.85
2022-11-30T03:26:28.536Z,6.43
2022-11-30T03:29:02.390Z,5.80
2022-11-30T03:31:29.596Z,6.82
2022-11-30T03:34:03.338Z,7.20
2022-11-30T03:36:36.349Z,7.78
2022-11-30T03:39:03.626Z,8.98
2022-11-30T03:41:37.358Z,12.23
2022-11-30T03:44:04.283Z,8.80
2022-11-30T03:46:37.430Z,8.88
2022-11-30T03:49:04.265Z,8.43
2022-11-30T03:51:31.088Z,9.07
2022-11-30T03:54:04.417Z,8.75
2022-11-30T03:56:31.195Z,8.15
2022-11-30T03:59:04.401Z,8.57
2022-11-30T04:01:37.425Z,8.00
2022-11-30T04:04:04.403Z,7.57
2022-11-30T04:06:37.355Z,8.40
2022-11-30T04:09:04.259Z,7.80
2022-11-30T04:11:31.141Z,8.38
2022-11-30T04:14:04.456Z,9.52
2022-11-30T04:16:31.281Z,8.85
2022-11-30T04:19:04.453Z,8.40
2022-11-30T04:21:31.269Z,7.93
2022-11-30T04:24:04.431Z,6.97
2022-11-30T04:26:31.494Z,6.38
2022-11-30T04:29:04.734Z,6.30
2022-11-30T04:31:38.475Z,7.35
2022-11-30T04:34:11.431Z,7.95
2022-11-30T04:36:38.361Z,10.95
2022-11-30T04:39:11.431Z,9.75
2022-11-30T04:41:39.440Z,13.65
2022-11-30T04:44:12.457Z,13.18
2022-11-30T04:46:39.300Z,15.40
2022-11-30T04:49:12.492Z,15.77
2022-11-30T04:51:50.438Z,15.63
2022-11-30T04:54:23.548Z,16.77
2022-11-30T04:56:50.300Z,16.15
2022-11-30T04:59:17.330Z,17.45
2022-11-30T05:01:50.588Z,19.23
2022-11-30T05:04:26.575Z,18.40
2022-11-30T05:06:57.520Z,16.02
2022-11-30T05:09:35.497Z,14.85
2022-11-30T05:12:18.492Z,13.27
2022-11-30T05:14:51.517Z,12.15
2022-11-30T05:17:18.434Z,11.77
2022-11-30T05:19:45.195Z,12.32
2022-11-30T05:22:18.508Z,13.70
2022-11-30T05:24:45.887Z,15.07
2022-11-30T05:27:22.698Z,13.35
2022-11-30T05:29:49.796Z,14.35
2022-11-30T05:32:29.584Z,14.63
2022-11-30T05:35:02.504Z,18.50
2022-11-30T05:37:35.508Z,17.70
2022-11-30T05:40:08.520Z,17.48
2022-11-30T05:42:35.310Z,15.82
2022-11-30T05:45:08.543Z,16.00
2022-11-30T05:47:41.556Z,16.40
2022-11-30T05:50:08.768Z,15.38
2022-11-30T05:52:42.585Z,14.50
2022-11-30T05:55:09.578Z,12.45
2022-11-30T05:57:47.565Z,13.82
2022-11-30T06:00:21.677Z,15.60
2022-11-30T06:02:57.378Z,15.02
2022-11-30T06:05:31.544Z,17.83
2022-11-30T06:08:06.607Z,16.48
2022-11-30T06:10:33.375Z,15.20
2022-11-30T06:13:13.627Z,14.70
2022-11-30T06:15:41.810Z,12.75
2022-11-30T06:18:16.610Z,12.35
2022-11-30T06:20:43.445Z,13.98
2022-11-30T06:23:10.244Z,12.75
2022-11-30T06:25:43.659Z,12.52
2022-11-30T06:28:17.646Z,12.00
2022-11-30T06:30:50.622Z,11.57
2022-11-30T06:33:22.844Z,11.88
2022-11-30T06:35:56.593Z,11.15
2022-11-30T06:38:24.470Z,10.73
2022-11-30T06:40:57.618Z,11.00
2022-11-30T06:43:24.468Z,9.88
2022-11-30T06:45:57.733Z,8.98
2022-11-30T06:48:24.633Z,9.05
2022-11-30T06:50:57.657Z,8.23
2022-11-30T06:53:25.146Z,11.40
2022-11-30T06:55:52.412Z,11.55
2022-11-30T06:58:25.658Z,12.35
2022-11-30T07:00:52.814Z,12.23
2022-11-30T07:03:39.685Z,11.13
2022-11-30T07:06:14.724Z,11.35
2022-11-30T07:08:48.762Z,10.63
2022-11-30T07:11:22.871Z,10.32
2022-11-30T07:13:49.694Z,10.48
2022-11-30T07:16:22.739Z,11.60
2022-11-30T07:18:49.562Z,11.65
2022-11-30T07:21:16.322Z,9.43
2022-11-30T07:24:07.738Z,9.63
2022-11-30T07:26:41.712Z,9.65
2022-11-30T07:29:09.016Z,9.15
2022-11-30T07:31:49.800Z,11.13
2022-11-30T07:34:16.752Z,10.30
2022-11-30T07:36:49.707Z,10.40
2022-11-30T07:39:16.476Z,10.00
2022-11-30T07:41:50.721Z,9.35
2022-11-30T07:44:17.535Z,8.80
2022-11-30T07:46:44.481Z,7.80
2022-11-30T07:49:17.756Z,8.18
2022-11-30T07:51:44.625Z,7.43
2022-11-30T07:54:17.791Z,8.75
2022-11-30T07:56:45.003Z,6.97
2022-11-30T07:59:18.763Z,7.28
2022-11-30T08:01:45.721Z,7.28
2022-11-30T08:04:14.070Z,7.57
2022-11-30T08:06:47.766Z,8.02
2022-11-30T08:09:21.099Z,9.40
2022-11-30T08:12:01.771Z,7.72
2022-11-30T08:14:50.409Z,8.45
2022-11-30T08:17:24.935Z,15.48
2022-11-30T08:19:58.837Z,11.23
2022-11-30T08:22:25.891Z,10.65
2022-11-30T08:24:58.837Z,10.65
2022-11-30T08:27:26.387Z,10.60
2022-11-30T08:29:59.784Z,10.35
2022-11-30T08:32:28.532Z,11.73
2022-11-30T08:35:01.960Z,9.60
2022-11-30T08:37:29.852Z,12.73
2022-11-30T08:39:56.735Z,11.50
2022-11-30T08:42:37.834Z,11.90
2022-11-30T08:45:11.907Z,12.82
2022-11-30T08:47:39.231Z,14.05
2022-11-30T08:50:06.804Z,14.45
2022-11-30T08:52:47.003Z,12.70
2022-11-30T08:55:13.922Z,12.75
2022-11-30T08:57:40.800Z,12.18
2022-11-30T09:00:14.956Z,9.93
2022-11-30T09:02:41.852Z,9.82
2022-11-30T09:05:08.794Z,14.02
2022-11-30T09:07:42.117Z,12.93
2022-11-30T09:10:09.359Z,14.23
2022-11-30T09:12:48.989Z,13.27
2022-11-30T09:15:15.803Z,14.55
2022-11-30T09:17:44.250Z,10.25
2022-11-30T09:20:17.912Z,9.15
2022-11-30T09:22:44.787Z,10.35
2022-11-30T09:25:17.928Z,11.60
2022-11-30T09:27:44.789Z,9.15
2022-11-30T09:30:11.945Z,9.95
2022-11-30T09:32:45.017Z,8.73
2022-11-30T09:35:13.080Z,8.45
2022-11-30T09:37:40.354Z,18.63
2022-11-30T09:40:15.103Z,15.88
2022-11-30T09:42:50.760Z,15.93
2022-11-30T09:45:34.908Z,15.60
2022-11-30T09:48:24.912Z,13.37
2022-11-30T09:50:53.145Z,11.20
2022-11-30T09:53:37.903Z,12.07
2022-11-30T09:56:21.007Z,19.40
2022-11-30T09:58:56.346Z,15.55
2022-11-30T10:01:32.802Z,14.40
2022-11-30T10:04:01.614Z,16.73
2022-11-30T10:06:55.005Z,15.38
2022-11-30T10:09:39.940Z,17.60
2022-11-30T10:12:30.085Z,15.85
2022-11-30T10:15:23.937Z,19.25
2022-11-30T10:18:03.098Z,20.45
2022-11-30T10:20:51.882Z,20.75
2022-11-30T10:23:31.082Z,17.95
2022-11-30T10:26:03.663Z,19.67
2022-11-30T10:28:56.971Z,16.85
2022-11-30T10:31:35.957Z,17.67
2022-11-30T10:34:26.053Z,17.58
2022-11-30T10:37:28.120Z,18.90
2022-11-30T10:40:04.026Z,19.03
2022-11-30T10:42:45.992Z,17.90
2022-11-30T10:45:23.043Z,16.50
2022-11-30T10:48:17.172Z,20.52
2022-11-30T10:50:44.091Z,19.08
2022-11-30T10:53:12.458Z,18.17
2022-11-30T10:56:19.150Z,18.52
2022-11-30T10:58:56.812Z,20.55
2022-11-30T11:01:46.272Z,20.20
2022-11-30T11:04:13.368Z,18.33
2022-11-30T11:06:43.335Z,19.80
2022-11-30T11:09:39.110Z,18.63
2022-11-30T11:12:14.847Z,16.52
2022-11-30T11:14:48.253Z,16.05
2022-11-30T11:17:18.167Z,16.10
2022-11-30T11:19:46.927Z,14.85
2022-11-30T11:22:36.277Z,15.73
2022-11-30T11:25:41.097Z,20.55
2022-11-30T11:28:18.857Z,18.13
2022-11-30T11:30:53.144Z,20.70
2022-11-30T11:33:29.685Z,19.33
2022-11-30T11:36:21.120Z,20.00
2022-11-30T11:38:51.461Z,18.15
2022-11-30T11:41:40.148Z,18.50
2022-11-30T11:44:27.083Z,15.98
2022-11-30T11:47:06.278Z,16.77
2022-11-30T11:49:36.689Z,17.00
2022-11-30T11:52:20.138Z,15.32
2022-11-30T11:54:49.496Z,15.52
2022-11-30T11:57:19.982Z,17.15
2022-11-30T12:00:16.136Z,17.35
2022-11-30T12:03:19.342Z,19.05
2022-11-30T12:06:02.168Z,18.80
2022-11-30T12:08:38.229Z,19.40
2022-11-30T12:11:27.393Z,20.35
2022-11-30T12:13:57.296Z,18.80
2022-11-30T12:17:12.340Z,17.13
2022-11-30T12:20:07.099Z,17.63
2022-11-30T12:23:18.393Z,15.23
2022-11-30T12:25:54.015Z,14.98
2022-11-30T12:28:44.215Z,14.20
2022-11-30T12:31:18.381Z,14.27
2022-11-30T12:34:27.204Z,14.15
2022-11-30T12:37:06.738Z,16.33
2022-11-30T12:40:16.301Z,15.02
2022-11-30T12:42:46.259Z,14.57
2022-11-30T12:45:29.240Z,18.65
2022-11-30T12:48:28.583Z,17.52
2022-11-30T12:51:30.179Z,18.67
2022-11-30T12:54:23.811Z,20.23
2022-11-30T12:57:11.383Z,19.88
2022-11-30T13:00:01.189Z,19.35
2022-11-30T13:03:10.337Z,21.05
2022-11-30T13:05:54.541Z,21.17
2022-11-30T13:08:40.504Z,20.13
2022-11-30T13:11:13.568Z,20.83
2022-11-30T13:13:55.433Z,21.55
2022-11-30T13:16:24.726Z,21.60
2022-11-30T13:19:02.337Z,21.15
2022-11-30T13:21:37.424Z,20.75
2022-11-30T13:24:35.235Z,19.48
2022-11-30T13:27:19.538Z,20.60
2022-11-30T13:29:53.381Z,19.00
2022-11-30T13:32:56.815Z,19.65
2022-11-30T13:35:46.479Z,18.77
2022-11-30T13:41:15.288Z,18.60
2022-11-30T13:43:53.438Z,18.50
2022-11-30T13:46:23.820Z,21.17
2022-11-30T13:49:29.362Z,20.08
2022-11-30T13:52:21.555Z,19.17
2022-11-30T13:54:52.319Z,18.38
2022-11-30T13:57:25.473Z,19.25
2022-11-30T14:00:03.333Z,17.27
2022-11-30T14:02:43.026Z,19.63
2022-11-30T14:05:25.471Z,19.55
2022-11-30T14:07:59.926Z,20.63
2022-11-30T14:10:51.503Z,20.17
2022-11-30T14:13:22.790Z,20.00
2022-11-30T14:16:07.360Z,19.52
2022-11-30T14:18:42.729Z,19.23
2022-11-30T14:21:41.384Z,18.77
2022-11-30T14:24:19.374Z,17.55
2022-11-30T14:26:55.367Z,16.55
2022-11-30T14:29:34.469Z,20.80
2022-11-30T14:32:18.980Z,19.05
2022-11-30T14:34:58.470Z,17.75
2022-11-30T14:37:35.553Z,18.80
2022-11-30T14:40:17.171Z,17.40
2022-11-30T14:42:59.397Z,16.85
2022-11-30T14:45:34.065Z,18.15
2022-11-30T14:48:20.394Z,15.82
2022-11-30T14:50:54.899Z,17.40
2022-11-30T14:53:49.359Z,15.57
2022-11-30T14:56:48.810Z,15.88
2022-11-30T14:59:51.628Z,18.90
2022-11-30T15:02:38.717Z,19.30
2022-11-30T15:05:15.495Z,18.77
2022-11-30T15:07:43.717Z,17.98
2022-11-30T15:10:29.347Z,16.25
2022-11-30T15:12:58.033Z,17.63
2022-11-30T15:15:40.195Z,19.13
2022-11-30T15:18:20.663Z,19.95
2022-11-30T15:21:06.486Z,17.95
2022-11-30T15:23:40.503Z,19.23
2022-11-30T15:26:18.544Z,18.17
2022-11-30T15:29:02.497Z,17.35
2022-11-30T15:31:37.465Z,21.00
2022-11-30T15:34:12.502Z,20.65
2022-11-30T15:36:39.605Z,18.98
2022-11-30T15:39:08.038Z,17.88
2022-11-30T15:41:42.583Z,18.20
2022-11-30T15:44:38.930Z,16.45
2022-11-30T15:47:29.600Z,15.73
2022-11-30T15:49:56.507Z,16.02
2022-11-30T15:52:35.521Z,14.43
2022-11-30T15:55:04.075Z,16.55
2022-11-30T15:58:05.826Z,14.85
2022-11-30T16:00:32.650Z,15.10
2022-11-30T16:03:18.654Z,16.15
2022-11-30T16:05:57.100Z,17.40
2022-11-30T16:08:37.588Z,17.67
2022-11-30T16:11:08.042Z,16.42
2022-11-30T16:13:48.662Z,16.83
2022-11-30T16:16:22.118Z,18.00
2022-11-30T16:18:56.664Z,15.93
2022-11-30T16:21:23.517Z,17.25
2022-11-30T16:23:50.425Z,18.67
2022-11-30T16:29:18.648Z,18.85
2022-11-30T16:31:45.778Z,19.65
2022-11-30T16:34:13.501Z,18.38
2022-11-30T16:36:46.887Z,17.77
2022-11-30T16:39:13.785Z,15.75
2022-11-30T16:41:40.734Z,16.70
2022-11-30T16:44:20.637Z,16.33
2022-11-30T16:46:48.799Z,15.07
2022-11-30T16:49:15.704Z,16.60
2022-11-30T16:51:49.570Z,15.00
2022-11-30T16:54:22.667Z,17.23
2022-11-30T16:56:49.508Z,17.52
2022-11-30T16:59:22.686Z,16.20
2022-11-30T17:01:53.290Z,16.15
2022-11-30T17:04:32.625Z,15.75
2022-11-30T17:07:04.475Z,17.17
2022-11-30T17:09:40.663Z,17.92
2022-11-30T17:12:09.639Z,16.67
2022-11-30T17:14:42.611Z,16.10
2022-11-30T17:17:10.357Z,18.63
2022-11-30T17:19:45.605Z,17.65
2022-11-30T17:22:18.632Z,20.13
2022-11-30T17:24:46.116Z,20.17
2022-11-30T17:27:26.619Z,20.65
2022-11-30T17:29:59.624Z,22.38
2022-11-30T17:32:27.953Z,22.08
2022-11-30T17:35:01.818Z,22.42
2022-11-30T17:37:28.678Z,23.08
2022-11-30T17:40:01.639Z,30.45
2022-11-30T17:42:29.231Z,27.60
2022-11-30T17:45:02.676Z,33.08
2022-11-30T17:47:29.955Z,29.77
2022-11-30T17:50:10.679Z,27.10
2022-11-30T17:52:37.524Z,25.98
2022-11-30T17:55:11.677Z,26.20
2022-11-30T17:57:51.685Z,24.30
2022-11-30T18:00:19.109Z,24.80
2022-11-30T18:02:55.778Z,23.27
2022-11-30T18:05:22.716Z,22.50
2022-11-30T18:07:56.907Z,23.25
2022-11-30T18:10:23.770Z,24.27
2022-11-30T18:12:50.862Z,24.35
2022-11-30T18:15:24.764Z,27.80
2022-11-30T18:17:55.110Z,26.90
2022-11-30T18:20:28.714Z,25.88
2022-11-30T18:23:05.728Z,27.40
2022-11-30T18:25:41.728Z,24.92
2022-11-30T18:28:08.545Z,24.42
2022-11-30T18:30:43.805Z,22.95
2022-11-30T18:33:17.843Z,22.80
2022-11-30T18:35:44.836Z,20.70
2022-11-30T18:38:15.715Z,21.52
2022-11-30T18:40:49.894Z,23.13
2022-11-30T18:43:16.736Z,26.20
2022-11-30T18:45:43.635Z,24.50
2022-11-30T18:48:17.934Z,24.27
2022-11-30T18:50:44.876Z,23.63
2022-11-30T18:53:15.232Z,24.05
2022-11-30T18:55:51.805Z,24.58
2022-11-30T18:58:24.847Z,24.95
2022-11-30T19:00:51.636Z,24.98
2022-11-30T19:03:25.817Z,27.80
2022-11-30T19:05:54.429Z,25.80
2022-11-30T19:08:27.829Z,25.30
2022-11-30T19:10:54.698Z,27.65
2022-11-30T19:13:28.974Z,25.55
2022-11-30T19:15:56.064Z,24.45
2022-11-30T19:18:29.801Z,27.67
2022-11-30T19:20:56.912Z,25.70
2022-11-30T19:23:30.829Z,25.10
2022-11-30T19:26:01.796Z,25.52
2022-11-30T19:28:36.813Z,25.40
2022-11-30T19:31:12.507Z,25.83
2022-11-30T19:33:48.013Z,23.75
2022-11-30T19:36:29.839Z,22.65
2022-11-30T19:39:05.834Z,22.45
2022-11-30T19:41:33.568Z,22.58
2022-11-30T19:44:08.896Z,23.88
2022-11-30T19:46:35.859Z,27.27
2022-11-30T19:49:09.882Z,28.40
2022-11-30T19:51:36.932Z,29.20
2022-11-30T19:54:10.969Z,28.08
2022-11-30T19:56:39.066Z,25.45
2022-11-30T19:59:12.942Z,25.35
2022-11-30T20:01:39.969Z,25.35
2022-11-30T20:04:14.018Z,25.25
2022-11-30T20:06:41.119Z,26.45
2022-11-30T20:09:10.075Z,25.08
2022-11-30T20:11:43.972Z,26.20
2022-11-30T20:14:16.545Z,23.98
2022-11-30T20:16:49.881Z,26.70
2022-11-30T20:19:24.055Z,23.60
2022-11-30T20:21:59.925Z,26.45
2022-11-30T20:24:26.838Z,27.25
2022-11-30T20:27:00.965Z,26.23
2022-11-30T20:29:27.888Z,25.40
2022-11-30T20:32:01.897Z,25.73
2022-11-30T20:34:37.648Z,25.42
2022-11-30T20:37:12.956Z,23.67
2022-11-30T20:39:45.831Z,23.67
2022-11-30T20:42:19.934Z,25.60
2022-11-30T20:44:47.206Z,23.10
2022-11-30T20:47:20.996Z,22.85
2022-11-30T20:49:56.086Z,22.02
2022-11-30T20:52:22.966Z,22.63
2022-11-30T20:54:50.097Z,25.83
2022-11-30T20:57:23.980Z,27.45
2022-11-30T20:59:56.954Z,26.70
2022-11-30T21:02:24.508Z,27.45
2022-11-30T21:04:58.040Z,27.90
2022-11-30T21:07:37.129Z,30.27
2022-11-30T21:10:05.393Z,25.80
2022-11-30T21:12:39.010Z,28.08
2022-11-30T21:15:06.952Z,25.90
2022-11-30T21:17:39.989Z,26.42
2022-11-30T21:20:07.819Z,23.95
2022-11-30T21:22:41.070Z,23.98
2022-11-30T21:25:11.463Z,24.50
2022-11-30T21:27:45.133Z,25.90
2022-11-30T21:30:12.725Z,25.00
2022-11-30T21:32:48.174Z,28.23
2022-11-30T21:35:15.256Z,33.45
2022-11-30T21:37:51.072Z,29.45
2022-11-30T21:40:18.185Z,27.98
2022-11-30T21:42:47.812Z,28.60
2022-11-30T21:45:21.068Z,28.95
2022-11-30T21:48:16.078Z,29.80
2022-11-30T21:50:42.957Z,29.55
2022-11-30T21:53:16.115Z,28.27
2022-11-30T21:55:43.114Z,28.48
2022-11-30T21:58:17.131Z,26.60
2022-11-30T22:00:44.225Z,26.33
2022-11-30T22:03:13.661Z,27.80
2022-11-30T22:05:49.065Z,26.30
2022-11-30T22:08:22.208Z,27.92
2022-11-30T22:10:56.074Z,27.95
2022-11-30T22:13:29.150Z,24.85
2022-11-30T22:16:05.682Z,27.00
2022-11-30T22:18:39.196Z,26.88
2022-11-30T22:21:07.212Z,30.45
2022-11-30T22:23:35.790Z,28.20
2022-11-30T22:26:24.080Z,29.23
2022-11-30T22:28:54.717Z,28.85
2022-11-30T22:31:32.179Z,25.02
2022-11-30T22:33:59.464Z,25.80
2022-11-30T22:36:37.163Z,26.05
2022-11-30T22:39:23.112Z,23.67
2022-11-30T22:41:58.149Z,25.17
2022-11-30T22:44:33.189Z,23.45
2022-11-30T22:47:06.241Z,22.42
2022-11-30T22:49:33.250Z,20.48
2022-11-30T22:52:07.127Z,23.63
2022-11-30T22:54:40.226Z,23.58
2022-11-30T22:57:13.130Z,27.13
2022-11-30T22:59:39.954Z,25.20
2022-11-30T23:02:06.731Z,26.02
2022-11-30T23:04:41.352Z,25.60
2022-11-30T23:07:17.188Z,22.25
2022-11-30T23:09:50.440Z,23.40
2022-11-30T23:12:36.070Z,21.58
2022-11-30T23:15:13.166Z,20.80
2022-11-30T23:17:46.168Z,21.13
2022-11-30T23:20:20.211Z,22.77
2022-11-30T23:22:47.038Z,22.70
2022-11-30T23:25:13.896Z,24.35
2022-11-30T23:27:54.266Z,20.92
2022-11-30T23:30:21.139Z,25.08
2022-11-30T23:32:54.378Z,21.27
2022-11-30T23:35:28.164Z,22.08
2022-11-30T23:38:01.174Z,21.95
2022-11-30T23:40:28.216Z,20.02
2022-11-30T23:43:01.254Z,20.40
2022-11-30T23:45:28.062Z,19.00
2022-11-30T23:48:01.198Z,22.13
2022-11-30T23:50:28.005Z,21.73
2022-11-30T23:52:55.130Z,21.33
2022-11-30T23:55:29.196Z,20.60
2022-11-30T23:58:02.240Z,19.48
